aviador You're here:

KDTO Decoded Metar

DENTON in TX, USA
Report Time2017-11-23 13:53:00
UTC Time2017-11-23 14:48:18
Flight Rules vfr VFR
WindCalm
Visibility9999 m
Phenomena:N/A
Clouds:N/A
Expected CloudBase > 800 ft AGL from Temp-Dew spread
CeilingNone
Temp00°C (ISA -14)
Dew Point-2°C (87% RH)
AAT-2.2°C
QNH1022 hPa
Density Alt-1,263 ft
Elevation643 ft
Report Wrong Elevation
Raw Report
METAR KDTO 231353Z 00000KT 10SM CLR 00/M02 A3019 RMK AO2 SLP227 T00001022=

Extra information for KDTO:More info

Metar Taf Metar & Taf Last 4 Metars F.Rules Stats Wind Profile Meteogram Temp Stats Airport Information Weather charts Add Link Nearby VenuesMetar ALERT Operation Metar Decoded Social comments

AIRNAV info for KDTO